createdAt,value
2023-04-23T00:01:36.008Z,17.60
2023-04-23T00:04:06.764Z,17.27
2023-04-23T00:06:35.179Z,22.23
2023-04-23T00:09:04.535Z,17.02
2023-04-23T00:11:34.165Z,18.75
2023-04-23T00:14:02.812Z,18.15
2023-04-23T00:16:30.936Z,17.67
2023-04-23T00:18:58.805Z,18.60
2023-04-23T00:21:28.204Z,18.50
2023-04-23T00:23:56.442Z,15.15
2023-04-23T00:26:24.849Z,19.05
2023-04-23T00:28:58.067Z,18.27
2023-04-23T00:31:27.708Z,15.52
2023-04-23T00:33:57.125Z,14.82
2023-04-23T00:36:25.078Z,17.77
2023-04-23T00:38:52.406Z,17.70
2023-04-23T00:41:19.721Z,15.70
2023-04-23T00:43:47.180Z,15.45
2023-04-23T00:46:14.415Z,16.10
2023-04-23T00:48:42.562Z,15.40
2023-04-23T00:51:11.630Z,14.88
2023-04-23T00:53:38.771Z,17.53
2023-04-23T00:56:06.232Z,13.77
2023-04-23T00:58:34.531Z,14.27
2023-04-23T01:01:04.683Z,14.02
2023-04-23T01:03:32.530Z,18.27
2023-04-23T01:05:59.963Z,16.57
2023-04-23T01:08:27.069Z,16.60
2023-04-23T01:10:54.871Z,18.25
2023-04-23T01:13:29.843Z,15.23
2023-04-23T01:15:57.327Z,16.55
2023-04-23T01:18:24.766Z,18.43
2023-04-23T01:20:52.042Z,16.95
2023-04-23T01:23:19.443Z,16.77
2023-04-23T01:25:47.809Z,19.33
2023-04-23T01:28:14.831Z,20.77
2023-04-23T01:30:43.537Z,18.17
2023-04-23T01:33:11.528Z,19.88
2023-04-23T01:35:39.335Z,18.77
2023-04-23T01:38:09.679Z,20.63
2023-04-23T01:40:37.274Z,21.83
2023-04-23T01:43:04.822Z,18.37
2023-04-23T01:45:32.123Z,19.02
2023-04-23T01:48:00.398Z,20.20
2023-04-23T01:50:29.312Z,20.05
2023-04-23T01:52:56.583Z,21.63
2023-04-23T01:55:23.983Z,19.57
2023-04-23T01:57:51.851Z,20.40
2023-04-23T02:00:19.339Z,20.90
2023-04-23T02:02:47.417Z,17.92
2023-04-23T02:05:19.019Z,24.02
2023-04-23T02:07:50.861Z,18.17
2023-04-23T02:10:20.105Z,19.60
2023-04-23T02:12:48.666Z,21.10
2023-04-23T02:15:17.203Z,19.52
2023-04-23T02:17:45.077Z,19.50
2023-04-23T02:20:13.763Z,19.80
2023-04-23T02:22:43.711Z,19.13
2023-04-23T02:25:11.645Z,20.15
2023-04-23T02:27:39.649Z,18.58
2023-04-23T02:30:09.517Z,18.30
2023-04-23T02:32:41.603Z,17.40
2023-04-23T02:35:11.041Z,19.30
2023-04-23T02:37:38.934Z,19.85
2023-04-23T02:40:06.953Z,17.40
2023-04-23T02:42:34.216Z,22.17
2023-04-23T02:45:01.255Z,17.57
2023-04-23T02:47:28.362Z,20.92
2023-04-23T02:49:55.622Z,16.90
2023-04-23T02:52:22.661Z,19.20
2023-04-23T02:54:49.705Z,17.08
2023-04-23T02:57:16.811Z,18.73
2023-04-23T02:59:43.911Z,16.25
2023-04-23T03:02:12.405Z,17.80
2023-04-23T03:04:41.014Z,23.13
2023-04-23T03:07:08.400Z,20.42
2023-04-23T03:09:36.464Z,19.77
2023-04-23T03:12:03.488Z,19.23
2023-04-23T03:14:30.923Z,17.02
2023-04-23T03:16:58.111Z,16.13
2023-04-23T03:19:25.543Z,16.38
2023-04-23T03:21:53.921Z,17.30
2023-04-23T03:24:20.968Z,16.77
2023-04-23T03:26:48.029Z,17.73
2023-04-23T03:29:15.669Z,18.50
2023-04-23T03:31:43.047Z,17.92
2023-04-23T03:34:10.711Z,19.47
2023-04-23T03:36:38.757Z,19.17
2023-04-23T03:39:08.048Z,17.05
2023-04-23T03:41:48.566Z,18.80
2023-04-23T03:44:18.158Z,17.60
2023-04-23T03:46:47.309Z,18.77
2023-04-23T03:49:17.597Z,17.55
2023-04-23T03:51:45.134Z,17.30
2023-04-23T03:54:12.223Z,18.00
2023-04-23T03:56:48.879Z,19.40
2023-04-23T03:59:16.313Z,18.13
2023-04-23T04:01:45.067Z,22.35
2023-04-23T04:04:12.394Z,19.10
2023-04-23T04:06:39.739Z,21.40
2023-04-23T04:09:08.573Z,16.50
2023-04-23T04:11:35.786Z,17.70
2023-04-23T04:14:03.480Z,18.85
2023-04-23T04:16:30.695Z,17.08
2023-04-23T04:18:57.814Z,16.35
2023-04-23T04:21:25.098Z,17.42
2023-04-23T04:23:52.162Z,20.03
2023-04-23T04:26:20.768Z,17.52
2023-04-23T04:28:47.902Z,16.88
2023-04-23T04:31:16.387Z,18.50
2023-04-23T04:33:43.629Z,22.17
2023-04-23T04:36:11.097Z,18.53
2023-04-23T04:38:39.443Z,18.88
2023-04-23T04:41:06.683Z,17.38
2023-04-23T04:43:34.682Z,17.33
2023-04-23T04:46:01.878Z,17.48
2023-04-23T04:48:29.068Z,17.00
2023-04-23T04:50:56.264Z,17.90
2023-04-23T04:53:23.471Z,17.23
2023-04-23T04:55:52.150Z,22.25
2023-04-23T04:58:19.260Z,19.20
2023-04-23T05:00:46.577Z,21.40
2023-04-23T05:03:14.397Z,21.77
2023-04-23T05:05:45.460Z,21.83
2023-04-23T05:08:13.165Z,19.95
2023-04-23T05:10:41.136Z,20.10
2023-04-23T05:13:08.889Z,19.37
2023-04-23T05:15:36.076Z,18.35
2023-04-23T05:18:12.027Z,21.60
2023-04-23T05:20:39.398Z,15.82
2023-04-23T05:23:06.693Z,16.52
2023-04-23T05:25:34.997Z,14.20
2023-04-23T05:28:03.261Z,13.77
2023-04-23T05:30:30.575Z,14.65
2023-04-23T05:32:57.654Z,15.90
2023-04-23T05:35:24.957Z,16.08
2023-04-23T05:37:51.955Z,15.57
2023-04-23T05:40:19.036Z,17.02
2023-04-23T05:42:46.259Z,17.80
2023-04-23T05:45:13.437Z,16.42
2023-04-23T05:47:40.725Z,15.35
2023-04-23T05:50:08.237Z,15.77
2023-04-23T05:52:37.809Z,14.00
2023-04-23T05:55:05.428Z,16.73
2023-04-23T05:57:33.523Z,15.50
2023-04-23T06:00:01.045Z,13.85
2023-04-23T06:02:31.717Z,14.90
2023-04-23T06:04:59.924Z,15.55
2023-04-23T06:07:32.643Z,15.88
2023-04-23T06:10:00.920Z,14.38
2023-04-23T06:12:29.248Z,14.23
2023-04-23T06:14:56.851Z,13.33
2023-04-23T06:17:26.747Z,13.95
2023-04-23T06:19:56.474Z,13.82
2023-04-23T06:22:24.390Z,13.48
2023-04-23T06:25:00.059Z,13.95
2023-04-23T06:27:38.935Z,14.87
2023-04-23T06:30:15.501Z,11.90
2023-04-23T06:32:44.011Z,13.50
2023-04-23T06:35:13.484Z,16.10
2023-04-23T06:37:41.157Z,13.38
2023-04-23T06:40:15.336Z,10.20
2023-04-23T06:42:43.249Z,11.55
2023-04-23T06:45:17.964Z,10.50
2023-04-23T06:47:52.775Z,12.75
2023-04-23T06:50:21.404Z,9.63
2023-04-23T06:52:48.613Z,11.50
2023-04-23T06:55:15.822Z,12.00
2023-04-23T06:57:43.980Z,10.60
2023-04-23T07:00:12.881Z,9.43
2023-04-23T07:02:43.453Z,8.88
2023-04-23T07:05:10.897Z,10.33
2023-04-23T07:07:38.890Z,10.02
2023-04-23T07:10:06.597Z,11.02
2023-04-23T07:12:33.800Z,9.63
2023-04-23T07:15:01.099Z,10.10
2023-04-23T07:17:28.277Z,9.37
2023-04-23T07:19:55.656Z,9.95
2023-04-23T07:22:24.230Z,8.35
2023-04-23T07:24:51.380Z,8.95
2023-04-23T07:27:18.968Z,8.80
2023-04-23T07:29:48.320Z,7.80
2023-04-23T07:32:16.720Z,8.20
2023-04-23T07:34:44.160Z,7.93
2023-04-23T07:37:12.080Z,8.07
2023-04-23T07:39:40.605Z,9.25
2023-04-23T07:42:09.858Z,8.43
2023-04-23T07:44:37.050Z,10.18
2023-04-23T07:47:04.093Z,8.63
2023-04-23T07:49:31.576Z,8.30
2023-04-23T07:51:58.706Z,7.78
2023-04-23T07:54:27.580Z,17.70
2023-04-23T07:56:55.007Z,15.02
2023-04-23T07:59:23.151Z,17.10
2023-04-23T08:01:52.364Z,16.30
2023-04-23T08:04:20.232Z,15.07
2023-04-23T08:06:47.683Z,14.73
2023-04-23T08:09:15.027Z,14.95
2023-04-23T08:11:42.565Z,16.80
2023-04-23T08:14:09.850Z,20.48
2023-04-23T08:16:39.061Z,18.20
2023-04-23T08:19:06.749Z,17.43
2023-04-23T08:21:35.621Z,19.10
2023-04-23T08:24:05.699Z,17.80
2023-04-23T08:26:32.861Z,13.30
2023-04-23T08:29:01.116Z,14.50
2023-04-23T08:31:28.706Z,16.47
2023-04-23T08:33:56.061Z,13.68
2023-04-23T08:36:23.185Z,12.90
2023-04-23T08:38:50.806Z,14.35
2023-04-23T08:41:19.485Z,12.85
2023-04-23T08:44:02.790Z,13.10
2023-04-23T08:46:32.125Z,12.30
2023-04-23T08:48:59.649Z,12.55
2023-04-23T08:51:29.489Z,11.68
2023-04-23T08:53:58.585Z,12.13
2023-04-23T08:56:27.518Z,13.57
2023-04-23T08:58:56.921Z,12.55
2023-04-23T09:01:24.293Z,12.70
2023-04-23T09:03:52.968Z,10.65
2023-04-23T09:06:20.192Z,12.38
2023-04-23T09:08:47.316Z,12.00
2023-04-23T09:11:16.023Z,11.25
2023-04-23T09:13:43.238Z,12.88
2023-04-23T09:16:10.820Z,10.27
2023-04-23T09:18:38.298Z,12.73
2023-04-23T09:21:05.455Z,10.97
2023-04-23T09:23:34.832Z,11.60
2023-04-23T09:26:06.153Z,9.45
2023-04-23T09:28:36.656Z,10.20
2023-04-23T09:31:06.620Z,9.00
2023-04-23T09:33:36.395Z,9.87
2023-04-23T09:36:12.018Z,10.43
2023-04-23T09:38:41.378Z,10.20
2023-04-23T09:41:22.864Z,9.38
2023-04-23T09:43:50.421Z,8.73
2023-04-23T09:46:17.741Z,10.23
2023-04-23T09:48:46.444Z,9.65
2023-04-23T09:51:16.994Z,10.38
2023-04-23T09:53:44.605Z,12.20
2023-04-23T09:56:12.131Z,11.73
2023-04-23T09:58:39.655Z,11.17
2023-04-23T10:01:11.556Z,9.48
2023-04-23T10:03:47.134Z,9.38
2023-04-23T10:06:25.713Z,11.55
2023-04-23T10:09:03.714Z,9.63
2023-04-23T10:11:31.407Z,12.50
2023-04-23T10:13:59.793Z,9.45
2023-04-23T10:16:35.835Z,10.27
2023-04-23T10:19:10.166Z,8.43
2023-04-23T10:21:50.185Z,10.88
2023-04-23T10:24:23.550Z,8.77
2023-04-23T10:26:52.192Z,9.93
2023-04-23T10:29:21.992Z,12.07
2023-04-23T10:31:49.424Z,10.02
2023-04-23T10:34:16.714Z,10.68
2023-04-23T10:36:44.434Z,10.27
2023-04-23T10:39:15.864Z,9.07
2023-04-23T10:41:48.789Z,10.02
2023-04-23T10:44:44.979Z,9.77
2023-04-23T10:47:12.830Z,9.88
2023-04-23T10:49:40.174Z,8.07
2023-04-23T10:52:20.784Z,8.50
2023-04-23T10:54:50.842Z,9.50
2023-04-23T10:57:18.030Z,10.23
2023-04-23T10:59:59.090Z,10.63
2023-04-23T11:02:43.478Z,10.03
2023-04-23T11:05:11.404Z,9.80
2023-04-23T11:07:40.067Z,10.90
2023-04-23T11:10:14.214Z,10.85
2023-04-23T11:12:41.515Z,9.30
2023-04-23T11:15:12.805Z,11.57
2023-04-23T11:17:39.872Z,10.57
2023-04-23T11:20:16.549Z,9.65
2023-04-23T11:22:44.855Z,13.27
2023-04-23T11:25:21.385Z,11.27
2023-04-23T11:27:49.862Z,10.23
2023-04-23T11:30:20.768Z,10.23
2023-04-23T11:32:49.620Z,10.50
2023-04-23T11:35:17.971Z,10.20
2023-04-23T11:37:45.892Z,9.77
2023-04-23T11:40:14.498Z,12.03
2023-04-23T11:42:43.778Z,9.85
2023-04-23T11:45:17.800Z,10.70
2023-04-23T11:47:46.207Z,10.48
2023-04-23T11:50:23.784Z,10.15
2023-04-23T11:52:51.810Z,9.47
2023-04-23T11:55:21.352Z,9.57
2023-04-23T11:57:50.724Z,12.45
2023-04-23T12:00:22.621Z,10.05
2023-04-23T12:03:03.249Z,9.90
2023-04-23T12:05:37.319Z,10.93
2023-04-23T12:08:08.254Z,8.90
2023-04-23T12:10:42.363Z,8.38
2023-04-23T12:13:14.276Z,10.30
2023-04-23T12:15:48.106Z,10.25
2023-04-23T12:18:16.891Z,8.97
2023-04-23T12:20:45.306Z,12.43
2023-04-23T12:23:13.084Z,10.40
2023-04-23T12:25:40.879Z,12.00
2023-04-23T12:28:08.076Z,10.65
2023-04-23T12:30:35.724Z,10.20
2023-04-23T12:33:03.749Z,9.13
2023-04-23T12:35:41.582Z,9.25
2023-04-23T12:38:09.168Z,11.00
2023-04-23T12:40:36.877Z,10.00
2023-04-23T12:43:03.909Z,13.40
2023-04-23T12:45:38.075Z,10.85
2023-04-23T12:48:05.406Z,10.50
2023-04-23T12:50:33.551Z,10.30
2023-04-23T12:53:00.886Z,9.50
2023-04-23T12:55:28.040Z,8.97
2023-04-23T12:57:55.323Z,8.82
2023-04-23T13:00:24.521Z,10.10
2023-04-23T13:02:51.965Z,8.13
2023-04-23T13:05:19.559Z,9.90
2023-04-23T13:07:46.853Z,9.73
2023-04-23T13:10:13.996Z,9.25
2023-04-23T13:12:41.624Z,9.93
2023-04-23T13:15:09.501Z,8.70
2023-04-23T13:17:37.710Z,9.80
2023-04-23T13:20:05.491Z,9.03
2023-04-23T13:22:33.428Z,10.43
2023-04-23T13:25:01.024Z,10.77
2023-04-23T13:27:29.470Z,8.50
2023-04-23T13:29:56.881Z,9.18
2023-04-23T13:32:25.460Z,9.00
2023-04-23T13:34:52.589Z,9.80
2023-04-23T13:37:19.989Z,7.93
2023-04-23T13:39:47.485Z,8.45
2023-04-23T13:42:14.779Z,10.13
2023-04-23T13:44:41.749Z,8.40
2023-04-23T13:47:08.736Z,12.38
2023-04-23T13:49:37.343Z,9.68
2023-04-23T13:52:07.264Z,9.18
2023-04-23T13:54:35.938Z,10.45
2023-04-23T13:57:03.538Z,9.13
2023-04-23T13:59:31.062Z,7.72
2023-04-23T14:01:58.321Z,9.43
2023-04-23T14:04:25.432Z,8.85
2023-04-23T14:06:52.676Z,8.52
2023-04-23T14:09:27.433Z,7.80
2023-04-23T14:11:54.700Z,10.40
2023-04-23T14:14:21.852Z,9.32
2023-04-23T14:16:48.870Z,11.05
2023-04-23T14:19:15.908Z,9.70
2023-04-23T14:21:43.096Z,9.87
2023-04-23T14:24:17.679Z,9.88
2023-04-23T14:26:49.493Z,10.73
2023-04-23T14:29:23.494Z,9.68
2023-04-23T14:31:50.927Z,10.18
2023-04-23T14:34:18.339Z,10.27
2023-04-23T14:36:49.340Z,8.70
2023-04-23T14:39:16.656Z,8.98
2023-04-23T14:41:43.751Z,10.27
2023-04-23T14:44:11.429Z,8.38
2023-04-23T14:46:38.570Z,8.27
2023-04-23T14:49:07.074Z,8.25
2023-04-23T14:51:34.198Z,8.63
2023-04-23T14:54:01.682Z,10.10
2023-04-23T14:56:28.813Z,9.77
2023-04-23T14:58:55.985Z,9.27
2023-04-23T15:01:23.295Z,9.27
2023-04-23T15:03:50.755Z,8.32
2023-04-23T15:06:18.114Z,10.45
2023-04-23T15:08:45.374Z,10.13
2023-04-23T15:11:16.239Z,8.70
2023-04-23T15:13:57.960Z,8.77
2023-04-23T15:16:47.536Z,8.73
2023-04-23T15:19:18.364Z,9.93
2023-04-23T15:21:46.439Z,9.35
2023-04-23T15:24:13.802Z,9.43
2023-04-23T15:26:41.140Z,9.25
2023-04-23T15:29:09.229Z,10.20
2023-04-23T15:31:40.225Z,11.65
2023-04-23T15:34:09.634Z,9.55
2023-04-23T15:36:38.085Z,10.43
2023-04-23T15:39:07.008Z,7.90
2023-04-23T15:41:37.027Z,8.68
2023-04-23T15:44:08.993Z,10.55
2023-04-23T15:46:36.418Z,11.90
2023-04-23T15:49:08.927Z,11.10
2023-04-23T15:51:48.391Z,11.07
2023-04-23T15:54:21.892Z,12.75
2023-04-23T15:56:59.309Z,10.35
2023-04-23T15:59:30.114Z,10.88
2023-04-23T16:02:06.210Z,10.80
2023-04-23T16:04:42.813Z,9.23
2023-04-23T16:10:08.769Z,12.43
2023-04-23T16:12:36.078Z,10.68
2023-04-23T16:17:39.386Z,12.18
2023-04-23T16:20:06.838Z,11.65
2023-04-23T16:22:34.183Z,9.00
2023-04-23T16:25:01.466Z,11.20
2023-04-23T16:27:38.091Z,9.67
2023-04-23T16:30:06.614Z,9.82
2023-04-23T16:32:36.152Z,10.13
2023-04-23T16:35:06.395Z,11.43
2023-04-23T16:37:33.659Z,11.05
2023-04-23T16:40:01.381Z,9.73
2023-04-23T16:42:28.654Z,11.15
2023-04-23T16:44:56.032Z,11.88
2023-04-23T16:47:23.294Z,10.15
2023-04-23T16:49:50.630Z,12.13
2023-04-23T16:52:17.869Z,10.57
2023-04-23T16:54:45.351Z,11.10
2023-04-23T16:57:12.604Z,10.75
2023-04-23T16:59:41.068Z,10.00
2023-04-23T17:02:08.420Z,12.20
2023-04-23T17:04:35.718Z,11.57
2023-04-23T17:07:03.078Z,13.07
2023-04-23T17:09:30.210Z,11.70
2023-04-23T17:11:58.264Z,11.90
2023-04-23T17:14:25.370Z,12.05
2023-04-23T17:16:52.457Z,10.73
2023-04-23T17:19:19.566Z,12.00
2023-04-23T17:21:46.604Z,11.60
2023-04-23T17:24:13.772Z,11.40
2023-04-23T17:26:41.114Z,15.35
2023-04-23T17:29:08.309Z,12.60
2023-04-23T17:31:37.676Z,12.65
2023-04-23T17:34:05.597Z,12.07
2023-04-23T17:36:33.219Z,11.00
2023-04-23T17:39:00.399Z,12.95
2023-04-23T17:41:27.520Z,13.37
2023-04-23T17:43:54.642Z,12.27
2023-04-23T17:46:21.863Z,13.45
2023-04-23T17:48:49.091Z,21.02
2023-04-23T17:51:16.277Z,64.85
2023-04-23T17:53:48.630Z,79.30
2023-04-23T17:56:16.037Z,37.20
2023-04-23T17:58:43.418Z,35.15
2023-04-23T18:01:10.968Z,32.13
2023-04-23T18:03:38.498Z,28.45
2023-04-23T18:06:06.554Z,34.47
2023-04-23T18:08:33.807Z,18.42
2023-04-23T18:11:01.024Z,19.30
2023-04-23T18:13:28.275Z,12.98
2023-04-23T18:15:55.487Z,10.65
2023-04-23T18:18:22.699Z,12.47
2023-04-23T18:20:52.224Z,11.10
2023-04-23T18:23:21.019Z,14.38
2023-04-23T18:25:48.433Z,11.93
2023-04-23T18:28:15.547Z,11.43
2023-04-23T18:30:42.683Z,11.67
2023-04-23T18:33:15.973Z,13.25
2023-04-23T18:35:46.297Z,13.00
2023-04-23T18:38:24.379Z,13.00
2023-04-23T18:40:51.814Z,19.38
2023-04-23T18:43:19.221Z,23.97
2023-04-23T18:45:46.466Z,17.20
2023-04-23T18:48:32.474Z,24.42
2023-04-23T18:51:04.858Z,23.15
2023-04-23T18:53:32.221Z,21.88
2023-04-23T18:55:59.388Z,15.50
2023-04-23T18:58:27.044Z,15.60
2023-04-23T19:00:55.199Z,19.13
2023-04-23T19:03:26.896Z,15.57
2023-04-23T19:05:54.745Z,12.88
2023-04-23T19:08:23.077Z,14.80
2023-04-23T19:10:50.118Z,15.40
2023-04-23T19:13:19.029Z,12.32
2023-04-23T19:15:46.177Z,13.60
2023-04-23T19:18:13.462Z,14.65
2023-04-23T19:20:40.633Z,12.50
2023-04-23T19:23:09.385Z,13.52
2023-04-23T19:25:43.735Z,12.70
2023-04-23T19:28:10.803Z,15.82
2023-04-23T19:30:38.347Z,15.88
2023-04-23T19:33:05.514Z,15.33
2023-04-23T19:35:32.788Z,15.43
2023-04-23T19:38:00.068Z,18.52
2023-04-23T19:40:27.176Z,18.23
2023-04-23T19:42:54.486Z,17.73
2023-04-23T19:45:22.386Z,16.67
2023-04-23T19:47:49.699Z,15.63
2023-04-23T19:50:17.012Z,20.65
2023-04-23T19:52:46.743Z,19.25
2023-04-23T19:55:14.064Z,18.67
2023-04-23T19:57:41.502Z,18.70
2023-04-23T20:00:13.736Z,21.70
2023-04-23T20:02:41.611Z,23.15
2023-04-23T20:05:10.938Z,25.55
2023-04-23T20:07:38.628Z,23.73
2023-04-23T20:10:06.231Z,24.37
2023-04-23T20:12:34.228Z,27.02
2023-04-23T20:15:01.506Z,22.25
2023-04-23T20:17:31.748Z,20.45
2023-04-23T20:20:02.168Z,19.45
2023-04-23T20:22:29.812Z,24.90
2023-04-23T20:25:02.287Z,24.92
2023-04-23T20:27:29.748Z,24.85
2023-04-23T20:30:00.164Z,21.55
2023-04-23T20:32:27.746Z,21.50
2023-04-23T20:34:55.086Z,20.10
2023-04-23T20:37:22.393Z,17.33
2023-04-23T20:39:50.327Z,18.25
2023-04-23T20:42:17.612Z,21.52
2023-04-23T20:44:47.280Z,19.77
2023-04-23T20:47:16.731Z,22.90
2023-04-23T20:49:44.146Z,18.55
2023-04-23T20:52:12.834Z,17.10
2023-04-23T20:54:40.084Z,15.65
2023-04-23T20:57:07.366Z,15.15
2023-04-23T20:59:34.727Z,17.87
2023-04-23T21:02:02.097Z,14.55
2023-04-23T21:04:29.495Z,18.48
2023-04-23T21:06:57.277Z,15.63
2023-04-23T21:09:24.709Z,14.73
2023-04-23T21:11:54.818Z,15.77
2023-04-23T21:14:22.163Z,17.45
2023-04-23T21:16:49.419Z,16.65
2023-04-23T21:19:16.764Z,17.92
2023-04-23T21:21:43.995Z,17.45
2023-04-23T21:24:11.158Z,17.57
2023-04-23T21:26:38.548Z,18.40
2023-04-23T21:29:06.595Z,16.17
2023-04-23T21:31:46.479Z,14.75
2023-04-23T21:34:17.071Z,13.45
2023-04-23T21:36:47.283Z,15.80
2023-04-23T21:39:14.829Z,15.15
2023-04-23T21:41:42.278Z,13.13
2023-04-23T21:44:09.571Z,16.73
2023-04-23T21:46:36.957Z,14.80
2023-04-23T21:49:04.318Z,15.50
2023-04-23T21:51:37.261Z,14.65
2023-04-23T21:54:06.212Z,14.20
2023-04-23T21:56:34.206Z,12.00
2023-04-23T21:59:02.566Z,13.93
2023-04-23T22:01:30.233Z,12.17
2023-04-23T22:03:58.490Z,16.33
2023-04-23T22:06:26.029Z,15.35
2023-04-23T22:08:54.971Z,18.08
2023-04-23T22:11:22.959Z,14.38
2023-04-23T22:13:50.270Z,15.73
2023-04-23T22:16:27.592Z,14.50
2023-04-23T22:18:57.083Z,14.20
2023-04-23T22:21:24.374Z,14.60
2023-04-23T22:23:51.729Z,13.70
2023-04-23T22:26:20.695Z,13.27
2023-04-23T22:28:50.008Z,13.18
2023-04-23T22:31:19.704Z,14.05
2023-04-23T22:33:51.149Z,13.90
2023-04-23T22:36:22.466Z,13.15
2023-04-23T22:38:55.369Z,12.53
2023-04-23T22:41:25.101Z,14.63
2023-04-23T22:44:01.055Z,17.48
2023-04-23T22:46:30.924Z,14.23
2023-04-23T22:49:01.589Z,15.48
2023-04-23T22:51:30.616Z,18.50
2023-04-23T22:53:57.912Z,15.40
2023-04-23T22:56:25.187Z,14.98
2023-04-23T22:58:52.710Z,14.23
2023-04-23T23:01:20.675Z,17.42
2023-04-23T23:03:48.258Z,15.03
2023-04-23T23:06:15.609Z,16.70
2023-04-23T23:08:42.844Z,16.73
2023-04-23T23:11:10.166Z,17.05
2023-04-23T23:13:37.664Z,16.25
2023-04-23T23:16:08.206Z,16.53
2023-04-23T23:18:35.819Z,15.88
2023-04-23T23:21:03.335Z,16.92
2023-04-23T23:23:30.921Z,20.27
2023-04-23T23:25:59.955Z,14.50
2023-04-23T23:28:27.780Z,20.03
2023-04-23T23:30:55.870Z,19.75
2023-04-23T23:33:23.379Z,15.85
2023-04-23T23:35:51.375Z,14.63
2023-04-23T23:38:18.596Z,14.48
2023-04-23T23:40:46.097Z,17.77
2023-04-23T23:43:13.436Z,16.35
2023-04-23T23:45:40.867Z,16.40
2023-04-23T23:48:08.110Z,18.83
2023-04-23T23:50:35.401Z,14.85
2023-04-23T23:53:02.716Z,13.63
2023-04-23T23:55:30.030Z,11.27
2023-04-23T23:57:57.297Z,13.60
